createdAt,value
2023-01-11T00:00:22.905Z,441.51
2023-01-11T00:01:22.898Z,436.90
2023-01-11T00:02:22.969Z,443.56
2023-01-11T00:03:22.871Z,440.06
2023-01-11T00:04:22.887Z,443.56
2023-01-11T00:05:22.858Z,448.91
2023-01-11T00:06:22.876Z,440.64
2023-01-11T00:07:22.796Z,444.44
2023-01-11T00:08:22.805Z,441.51
2023-01-11T00:09:22.773Z,445.03
2023-01-11T00:10:22.781Z,453.48
2023-01-11T00:11:22.753Z,451.03
2023-01-11T00:12:22.732Z,449.82
2023-01-11T00:13:22.732Z,456.57
2023-01-11T00:14:22.732Z,457.82
2023-01-11T00:15:22.705Z,462.56
2023-01-11T00:16:22.728Z,455.95
2023-01-11T00:17:22.666Z,457.51
2023-01-11T00:18:22.664Z,462.24
2023-01-11T00:19:22.663Z,461.92
2023-01-11T00:20:22.630Z,464.49
2023-01-11T00:21:22.631Z,473.69
2023-01-11T00:22:22.617Z,475.04
2023-01-11T00:23:22.609Z,468.39
2023-01-11T00:24:22.599Z,472.36
2023-01-11T00:25:22.586Z,473.02
2023-01-11T00:26:22.556Z,481.19
2023-01-11T00:27:22.558Z,474.70
2023-01-11T00:28:22.532Z,476.05
2023-01-11T00:29:22.508Z,486.43
2023-01-11T00:30:22.508Z,488.92
2023-01-11T00:31:22.546Z,488.92
2023-01-11T00:32:22.525Z,487.14
2023-01-11T00:33:22.463Z,492.15
2023-01-11T00:34:22.478Z,487.14
2023-01-11T00:35:22.432Z,488.92
2023-01-11T00:36:22.412Z,483.62
2023-01-11T00:37:22.425Z,489.28
2023-01-11T00:38:22.406Z,480.15
2023-01-11T00:39:22.386Z,494.70
2023-01-11T00:40:22.363Z,492.15
2023-01-11T00:41:22.393Z,490.71
2023-01-11T00:42:22.359Z,487.49
2023-01-11T00:43:22.328Z,493.97
2023-01-11T00:44:22.330Z,487.14
2023-01-11T00:45:22.326Z,487.14
2023-01-11T00:46:22.340Z,488.21
2023-01-11T00:47:22.290Z,496.17
2023-01-11T00:48:22.279Z,492.15
2023-01-11T00:49:22.268Z,500.25
2023-01-11T00:50:22.239Z,498.01
2023-01-11T00:51:22.280Z,504.77
2023-01-11T00:52:22.216Z,508.22
2023-01-11T00:53:22.221Z,509.77
2023-01-11T00:54:22.207Z,507.07
2023-01-11T00:55:22.163Z,520.07
2023-01-11T00:56:22.188Z,510.16
2023-01-11T00:57:22.159Z,520.07
2023-01-11T00:58:22.147Z,534.18
2023-01-11T00:59:22.143Z,529.11
2023-01-11T01:00:22.210Z,543.73
2023-01-11T01:01:22.139Z,540.22
2023-01-11T01:02:22.131Z,549.98
2023-01-11T01:03:22.084Z,555.46
2023-01-11T01:04:22.102Z,566.75
2023-01-11T01:05:22.090Z,566.27
2023-01-11T01:06:22.067Z,582.03
2023-01-11T01:07:22.085Z,586.10
2023-01-11T01:08:22.068Z,585.59
2023-01-11T01:09:22.040Z,584.06
2023-01-11T01:10:22.036Z,603.00
2023-01-11T01:11:22.016Z,603.00
2023-01-11T01:12:22.027Z,613.50
2023-01-11T01:13:21.990Z,612.38
2023-01-11T01:14:21.962Z,616.33
2023-01-11T01:15:21.922Z,614.06
2023-01-11T01:16:21.996Z,618.03
2023-01-11T01:17:21.938Z,619.18
2023-01-11T01:18:21.986Z,629.66
2023-01-11T01:19:21.892Z,630.25
2023-01-11T01:20:21.919Z,626.71
2023-01-11T01:21:21.886Z,633.84
2023-01-11T01:22:21.925Z,628.48
2023-01-11T01:23:21.884Z,626.71
2023-01-11T01:24:21.867Z,640.51
2023-01-11T01:25:21.828Z,641.12
2023-01-11T01:26:21.782Z,632.64
2023-01-11T01:27:21.896Z,651.73
2023-01-11T01:28:21.855Z,649.21
2023-01-11T01:29:21.886Z,652.37
2023-01-11T01:30:21.789Z,662.70
2023-01-11T01:31:21.769Z,656.21
2023-01-11T01:32:21.762Z,674.05
2023-01-11T01:33:21.760Z,667.99
2023-01-11T01:34:21.673Z,676.78
2023-01-11T01:35:21.768Z,685.09
2023-01-11T01:36:21.701Z,689.32
2023-01-11T01:37:21.712Z,695.05
2023-01-11T01:38:21.743Z,704.56
2023-01-11T01:39:21.661Z,714.33
2023-01-11T01:40:21.713Z,718.94
2023-01-11T01:41:21.661Z,722.82
2023-01-11T01:42:21.637Z,726.74
2023-01-11T01:43:21.650Z,737.15
2023-01-11T01:44:21.602Z,739.59
2023-01-11T01:45:21.635Z,742.05
2023-01-11T01:46:21.618Z,735.53
2023-01-11T01:47:21.570Z,737.96
2023-01-11T01:48:21.613Z,739.59
2023-01-11T01:49:21.567Z,744.53
2023-01-11T01:50:21.520Z,742.88
2023-01-11T01:51:21.524Z,750.28
2023-01-11T01:52:21.459Z,748.60
2023-01-11T01:53:21.479Z,750.28
2023-01-11T01:54:21.448Z,757.92
2023-01-11T01:55:21.409Z,761.80
2023-01-11T01:56:21.410Z,765.71
2023-01-11T01:57:21.364Z,767.47
2023-01-11T01:58:21.354Z,769.67
2023-01-11T01:59:21.367Z,779.52
2023-01-11T02:00:21.360Z,785.00
2023-01-11T02:01:21.402Z,768.79
2023-01-11T02:02:21.411Z,789.63
2023-01-11T02:03:21.301Z,793.84
2023-01-11T02:04:21.313Z,793.37
2023-01-11T02:05:21.273Z,791.49
2023-01-11T02:06:21.360Z,800.96
2023-01-11T02:07:21.261Z,806.26
2023-01-11T02:08:21.235Z,813.11
2023-01-11T02:09:21.235Z,814.59
2023-01-11T02:10:21.270Z,825.63
2023-01-11T02:11:21.209Z,831.27
2023-01-11T02:12:21.212Z,824.61
2023-01-11T02:13:21.177Z,834.37
2023-01-11T02:14:21.162Z,839.60
2023-01-11T02:15:21.199Z,849.18
2023-01-11T02:16:21.149Z,848.64
2023-01-11T02:17:21.177Z,863.40
2023-01-11T02:18:21.109Z,863.96
2023-01-11T02:19:21.087Z,875.24
2023-01-11T02:20:21.139Z,878.11
2023-01-11T02:21:21.110Z,890.96
2023-01-11T02:22:21.128Z,904.79
2023-01-11T02:23:21.043Z,893.33
2023-01-11T02:24:21.040Z,909.71
2023-01-11T02:25:21.008Z,914.67
2023-01-11T02:26:21.018Z,921.59
2023-01-11T02:27:20.985Z,939.69
2023-01-11T02:28:20.962Z,941.67
2023-01-11T02:29:20.984Z,942.33
2023-01-11T02:30:20.957Z,954.41
2023-01-11T02:31:21.048Z,965.42
2023-01-11T02:32:20.946Z,972.42
2023-01-11T02:33:20.897Z,975.97
2023-01-11T02:34:20.913Z,992.59
2023-01-11T02:35:20.894Z,990.39
2023-01-11T02:36:20.884Z,991.12
2023-01-11T02:37:20.876Z,997.77
2023-01-11T02:38:20.857Z,1009.80
2023-01-11T02:39:20.829Z,998.51
2023-01-11T02:40:20.841Z,1015.92
2023-01-11T02:41:20.813Z,1022.12
2023-01-11T02:42:20.812Z,1013.61
2023-01-11T02:43:20.830Z,1030.77
2023-01-11T02:44:20.802Z,1031.56
2023-01-11T02:45:20.762Z,1021.34
2023-01-11T02:46:20.841Z,1031.56
2023-01-11T02:47:20.733Z,1038.76
2023-01-11T02:48:20.736Z,1040.37
2023-01-11T02:49:20.785Z,1037.15
2023-01-11T02:50:20.716Z,1043.61
2023-01-11T02:51:20.736Z,1046.06
2023-01-11T02:52:20.759Z,1060.97
2023-01-11T02:53:20.654Z,1061.81
2023-01-11T02:54:20.737Z,1060.13
2023-01-11T02:55:20.611Z,1076.31
2023-01-11T02:56:20.602Z,1084.14
2023-01-11T02:57:20.597Z,1065.18
2023-01-11T02:58:20.627Z,1065.18
2023-01-11T02:59:20.570Z,1064.34
2023-01-11T03:00:20.562Z,1068.58
2023-01-11T03:01:20.550Z,1070.29
2023-01-11T03:02:20.554Z,1071.14
2023-01-11T03:03:20.567Z,1072.86
2023-01-11T03:04:20.539Z,1078.91
2023-01-11T03:05:20.481Z,1062.65
2023-01-11T03:06:20.506Z,1069.43
2023-01-11T03:07:20.461Z,1078.04
2023-01-11T03:08:20.480Z,1074.58
2023-01-11T03:09:20.500Z,1075.44
2023-01-11T03:10:20.468Z,1084.14
2023-01-11T03:11:20.432Z,1090.32
2023-01-11T03:12:20.404Z,1085.90
2023-01-11T03:13:20.400Z,1081.52
2023-01-11T03:14:20.380Z,1089.43
2023-01-11T03:15:20.457Z,1088.55
2023-01-11T03:16:20.400Z,1104.70
2023-01-11T03:17:20.346Z,1101.07
2023-01-11T03:18:20.341Z,1107.44
2023-01-11T03:19:20.311Z,1127.00
2023-01-11T03:20:20.319Z,1118.53
2023-01-11T03:21:20.306Z,1131.76
2023-01-11T03:22:20.314Z,1117.60
2023-01-11T03:23:20.264Z,1134.63
2023-01-11T03:24:20.230Z,1133.67
2023-01-11T03:25:20.215Z,1127.95
2023-01-11T03:26:20.233Z,1127.00
2023-01-11T03:27:20.226Z,1136.56
2023-01-11T03:28:20.209Z,1147.26
2023-01-11T03:29:20.197Z,1127.00
2023-01-11T03:30:20.155Z,1131.76
2023-01-11T03:31:20.168Z,1128.90
2023-01-11T03:32:20.161Z,1135.59
2023-01-11T03:33:20.135Z,1138.49
2023-01-11T03:34:20.147Z,1138.49
2023-01-11T03:35:20.114Z,1143.34
2023-01-11T03:36:20.133Z,1140.43
2023-01-11T03:37:20.083Z,1150.21
2023-01-11T03:38:20.117Z,1146.28
2023-01-11T03:39:20.069Z,1141.40
2023-01-11T03:40:20.032Z,1149.23
2023-01-11T03:41:20.033Z,1143.34
2023-01-11T03:42:20.019Z,1141.40
2023-01-11T03:43:20.025Z,1138.49
2023-01-11T03:44:20.012Z,1147.26
2023-01-11T03:45:19.984Z,1143.34
2023-01-11T03:46:20.026Z,1140.43
2023-01-11T03:47:19.984Z,1135.59
2023-01-11T03:48:19.950Z,1156.17
2023-01-11T03:49:19.928Z,1158.17
2023-01-11T03:50:19.929Z,1155.17
2023-01-11T03:51:19.882Z,1155.17
2023-01-11T03:52:19.884Z,1143.34
2023-01-11T03:53:19.905Z,1156.17
2023-01-11T03:54:19.859Z,1142.37
2023-01-11T03:55:19.828Z,1141.40
2023-01-11T03:56:19.822Z,1129.85
2023-01-11T03:57:19.795Z,1141.40
2023-01-11T03:58:19.834Z,1143.34
2023-01-11T03:59:19.853Z,1128.90
2023-01-11T04:00:19.806Z,1139.45
2023-01-11T04:01:19.767Z,1124.16
2023-01-11T04:02:19.778Z,1131.76
2023-01-11T04:03:19.779Z,1127.95
2023-01-11T04:04:19.730Z,1141.40
2023-01-11T04:05:19.721Z,1124.16
2023-01-11T04:06:19.755Z,1117.60
2023-01-11T04:07:19.680Z,1115.74
2023-01-11T04:08:19.676Z,1116.67
2023-01-11T04:09:19.717Z,1116.67
2023-01-11T04:10:19.680Z,1112.03
2023-01-11T04:11:19.657Z,1112.96
2023-01-11T04:12:19.635Z,1118.53
2023-01-11T04:13:19.611Z,1118.53
2023-01-11T04:14:19.595Z,1121.34
2023-01-11T04:15:19.606Z,1114.81
2023-01-11T04:16:19.647Z,1125.10
2023-01-11T04:17:19.557Z,1132.71
2023-01-11T04:18:19.548Z,1130.80
2023-01-11T04:19:19.513Z,1125.10
2023-01-11T04:20:19.541Z,1116.67
2023-01-11T04:21:19.497Z,1124.16
2023-01-11T04:22:19.498Z,1120.40
2023-01-11T04:23:19.532Z,1125.10
2023-01-11T04:24:19.517Z,1111.11
2023-01-11T04:25:19.432Z,1110.19
2023-01-11T04:26:19.439Z,1116.67
2023-01-11T04:27:19.447Z,1102.88
2023-01-11T04:28:19.444Z,1110.19
2023-01-11T04:29:19.409Z,1112.96
2023-01-11T04:30:19.390Z,1097.46
2023-01-11T04:31:19.379Z,1101.07
2023-01-11T04:32:19.366Z,1102.88
2023-01-11T04:33:19.357Z,1105.61
2023-01-11T04:34:19.331Z,1102.88
2023-01-11T04:35:19.311Z,1100.16
2023-01-11T04:36:19.292Z,1094.77
2023-01-11T04:37:19.305Z,1097.46
2023-01-11T04:38:19.291Z,1083.27
2023-01-11T04:39:19.244Z,1081.52
2023-01-11T04:40:19.267Z,1082.39
2023-01-11T04:41:19.266Z,1078.04
2023-01-11T04:42:19.361Z,1090.32
2023-01-11T04:43:19.213Z,1080.65
2023-01-11T04:44:19.230Z,1085.02
2023-01-11T04:45:19.209Z,1085.02
2023-01-11T04:46:19.167Z,1080.65
2023-01-11T04:47:19.140Z,1085.90
2023-01-11T04:48:19.182Z,1078.04
2023-01-11T04:49:19.147Z,1080.65
2023-01-11T04:50:19.239Z,1074.58
2023-01-11T04:51:19.155Z,1072.86
2023-01-11T04:52:19.108Z,1072.00
2023-01-11T04:53:19.121Z,1060.97
2023-01-11T04:54:19.067Z,1062.65
2023-01-11T04:55:19.051Z,1058.45
2023-01-11T04:56:19.070Z,1046.88
2023-01-11T04:57:19.054Z,1041.18
2023-01-11T04:58:19.026Z,1042.80
2023-01-11T04:59:19.010Z,1022.90
2023-01-11T05:00:19.024Z,1031.56
2023-01-11T05:01:19.144Z,1031.56
2023-01-11T05:02:18.975Z,1017.46
2023-01-11T05:03:19.002Z,1017.46
2023-01-11T05:04:19.002Z,1019.01
2023-01-11T05:05:18.925Z,1016.69
2023-01-11T05:06:18.917Z,1010.56
2023-01-11T05:07:18.899Z,1006.76
2023-01-11T05:08:18.935Z,994.07
2023-01-11T05:09:18.912Z,994.07
2023-01-11T05:10:20.864Z,988.20
2023-01-11T05:11:18.863Z,994.07
2023-01-11T05:12:18.845Z,980.97
2023-01-11T05:13:18.840Z,980.25
2023-01-11T05:14:18.799Z,968.91
2023-01-11T05:15:18.805Z,968.91
2023-01-11T05:16:18.826Z,967.51
2023-01-11T05:17:18.801Z,968.21
2023-01-11T05:18:18.782Z,953.74
2023-01-11T05:19:18.796Z,961.26
2023-01-11T05:20:18.785Z,956.46
2023-01-11T05:21:18.741Z,941.01
2023-01-11T05:22:18.785Z,937.06
2023-01-11T05:23:18.695Z,939.03
2023-01-11T05:24:18.687Z,924.14
2023-01-11T05:25:18.663Z,919.07
2023-01-11T05:26:18.689Z,920.96
2023-01-11T05:27:18.622Z,923.50
2023-01-11T05:28:18.669Z,915.93
2023-01-11T05:29:18.609Z,922.86
2023-01-11T05:30:18.593Z,926.05
2023-01-11T05:31:18.639Z,927.98
2023-01-11T05:32:18.571Z,931.20
2023-01-11T05:33:18.541Z,932.50
2023-01-11T05:34:18.561Z,927.34
2023-01-11T05:35:18.544Z,938.38
2023-01-11T05:36:18.549Z,934.45
2023-01-11T05:37:18.517Z,924.78
2023-01-11T05:38:18.513Z,929.26
2023-01-11T05:39:18.495Z,922.86
2023-01-11T05:40:18.485Z,926.69
2023-01-11T05:41:18.475Z,922.23
2023-01-11T05:42:18.463Z,926.05
2023-01-11T05:43:18.444Z,917.81
2023-01-11T05:44:18.454Z,915.93
2023-01-11T05:45:18.427Z,901.75
2023-01-11T05:46:18.421Z,900.54
2023-01-11T05:47:18.395Z,894.53
2023-01-11T05:48:18.358Z,891.55
2023-01-11T05:49:18.380Z,892.14
2023-01-11T05:50:18.330Z,883.91
2023-01-11T05:51:18.311Z,881.00
2023-01-11T05:52:18.348Z,869.57
2023-01-11T05:53:18.323Z,866.19
2023-01-11T05:54:18.294Z,861.18
2023-01-11T05:55:18.281Z,851.88
2023-01-11T05:56:18.297Z,850.79
2023-01-11T05:57:18.238Z,834.89
2023-01-11T05:58:18.298Z,834.37
2023-01-11T05:59:18.229Z,833.33
2023-01-11T06:00:18.234Z,824.11
2023-01-11T06:01:18.207Z,815.58
2023-01-11T06:02:18.344Z,808.20
2023-01-11T06:03:18.248Z,804.80
2023-01-11T06:04:18.165Z,799.52
2023-01-11T06:05:18.147Z,795.25
2023-01-11T06:06:18.109Z,796.20
2023-01-11T06:07:18.159Z,788.23
2023-01-11T06:08:18.117Z,784.08
2023-01-11T06:09:18.139Z,776.81
2023-01-11T06:10:18.061Z,773.22
2023-01-11T06:11:18.083Z,777.71
2023-01-11T06:12:18.069Z,773.67
2023-01-11T06:13:18.044Z,771.00
2023-01-11T06:14:18.036Z,771.89
2023-01-11T06:15:17.999Z,772.33
2023-01-11T06:16:18.103Z,772.78
2023-01-11T06:17:18.003Z,776.36
2023-01-11T06:18:17.993Z,773.67
2023-01-11T06:19:17.948Z,773.67
2023-01-11T06:20:17.940Z,777.26
2023-01-11T06:21:17.940Z,781.80
2023-01-11T06:22:17.946Z,782.25
2023-01-11T06:23:17.960Z,778.16
2023-01-11T06:24:17.914Z,779.98
2023-01-11T06:25:17.867Z,775.01
2023-01-11T06:26:17.881Z,779.07
2023-01-11T06:27:17.863Z,780.43
2023-01-11T06:28:17.860Z,777.26
2023-01-11T06:29:17.855Z,776.36
2023-01-11T06:30:17.859Z,771.00
2023-01-11T06:31:18.428Z,778.16
2023-01-11T06:32:17.827Z,776.36
2023-01-11T06:33:17.819Z,775.01
2023-01-11T06:34:17.757Z,790.56
2023-01-11T06:35:17.750Z,783.17
2023-01-11T06:36:17.774Z,787.77
2023-01-11T06:37:17.737Z,790.09
2023-01-11T06:38:17.731Z,796.67
2023-01-11T06:39:17.739Z,811.14
2023-01-11T06:40:17.694Z,806.26
2023-01-11T06:41:17.674Z,802.88
2023-01-11T06:42:17.681Z,804.32
2023-01-11T06:43:17.659Z,808.20
2023-01-11T06:44:17.642Z,806.74
2023-01-11T06:45:17.667Z,810.65
2023-01-11T06:46:17.723Z,811.63
2023-01-11T06:47:17.621Z,819.57
2023-01-11T06:48:17.575Z,809.67
2023-01-11T06:49:17.577Z,808.20
2023-01-11T06:50:17.599Z,803.84
2023-01-11T06:51:17.592Z,805.29
2023-01-11T06:52:17.575Z,793.37
2023-01-11T06:53:17.544Z,788.23
2023-01-11T06:54:17.530Z,782.25
2023-01-11T06:55:17.504Z,777.26
2023-01-11T06:56:17.527Z,769.23
2023-01-11T06:57:17.443Z,763.97
2023-01-11T06:58:17.458Z,768.35
2023-01-11T06:59:17.474Z,763.10
2023-01-11T07:00:17.440Z,761.80
2023-01-11T07:01:17.483Z,764.40
2023-01-11T07:02:17.402Z,767.03
2023-01-11T07:03:17.387Z,767.47
2023-01-11T07:04:17.542Z,767.47
2023-01-11T07:05:19.248Z,768.79
2023-01-11T07:06:17.365Z,767.91
2023-01-11T07:07:17.326Z,766.15
2023-01-11T07:08:17.329Z,763.10
2023-01-11T07:09:17.303Z,756.63
2023-01-11T07:10:17.299Z,749.44
2023-01-11T07:11:17.318Z,737.15
2023-01-11T07:12:17.313Z,729.91
2023-01-11T07:13:17.320Z,722.04
2023-01-11T07:14:17.310Z,714.33
2023-01-11T07:15:17.245Z,704.56
2023-01-11T07:16:17.299Z,697.95
2023-01-11T07:17:17.207Z,706.04
2023-01-11T07:18:17.207Z,706.79
2023-01-11T07:19:17.173Z,715.86
2023-01-11T07:20:17.175Z,729.91
2023-01-11T07:21:17.171Z,726.74
2023-01-11T07:22:17.141Z,729.12
2023-01-11T07:23:17.159Z,737.96
2023-01-11T07:24:17.125Z,739.59
2023-01-11T07:25:17.148Z,747.35
2023-01-11T07:26:17.246Z,739.59
2023-01-11T07:27:17.102Z,740.41
2023-01-11T07:28:17.087Z,739.59
2023-01-11T07:29:17.048Z,736.34
2023-01-11T07:30:17.032Z,737.15
2023-01-11T07:31:17.064Z,736.34
2023-01-11T07:32:17.006Z,741.23
2023-01-11T07:33:16.985Z,740.41
2023-01-11T07:34:16.972Z,747.77
2023-01-11T07:35:16.968Z,742.88
2023-01-11T07:36:16.964Z,741.23
2023-01-11T07:37:29.075Z,736.34
2023-01-11T07:38:16.950Z,731.51
2023-01-11T07:39:16.922Z,727.53
2023-01-11T07:40:16.940Z,725.17
2023-01-11T07:41:16.884Z,720.48
2023-01-11T07:42:16.896Z,714.33
2023-01-11T07:43:16.896Z,706.04
2023-01-11T07:44:16.869Z,705.30
2023-01-11T07:45:16.912Z,699.41
2023-01-11T07:46:16.884Z,700.87
2023-01-11T07:47:16.854Z,699.41
2023-01-11T07:48:16.785Z,697.95
2023-01-11T07:49:16.799Z,693.61
2023-01-11T07:50:16.768Z,687.20
2023-01-11T07:51:16.773Z,687.90
2023-01-11T07:52:16.776Z,684.39
2023-01-11T07:53:16.773Z,691.46
2023-01-11T07:54:16.708Z,682.99
2023-01-11T07:55:16.734Z,678.83
2023-01-11T07:56:16.683Z,682.29
2023-01-11T07:57:16.691Z,670.00
2023-01-11T07:58:16.679Z,666.00
2023-01-11T07:59:16.659Z,664.68
2023-01-11T08:00:16.637Z,666.00
2023-01-11T08:01:16.645Z,658.79
2023-01-11T08:02:16.661Z,657.49
2023-01-11T08:03:16.784Z,644.21
2023-01-11T08:04:16.595Z,642.97
2023-01-11T08:05:16.574Z,640.51
2023-01-11T08:06:16.564Z,638.67
2023-01-11T08:07:16.600Z,640.51
2023-01-11T08:08:16.526Z,638.67
2023-01-11T08:09:16.539Z,631.44
2023-01-11T08:10:16.559Z,633.24
2023-01-11T08:11:16.523Z,644.83
2023-01-11T08:12:16.502Z,644.21
2023-01-11T08:13:16.504Z,644.83
2023-01-11T08:14:16.492Z,644.83
2023-01-11T08:15:16.448Z,635.04
2023-01-11T08:16:16.532Z,635.04
2023-01-11T08:17:16.413Z,638.07
2023-01-11T08:18:16.389Z,636.85
2023-01-11T08:19:16.386Z,629.66
2023-01-11T08:20:16.363Z,635.04
2023-01-11T08:21:16.360Z,624.38
2023-01-11T08:22:16.339Z,625.54
2023-01-11T08:23:16.359Z,622.05
2023-01-11T08:24:16.358Z,620.32
2023-01-11T08:25:16.316Z,615.19
2023-01-11T08:26:16.292Z,619.75
2023-01-11T08:27:16.302Z,617.46
2023-01-11T08:28:16.317Z,612.38
2023-01-11T08:29:16.288Z,608.48
2023-01-11T08:30:16.237Z,602.46
2023-01-11T08:31:16.279Z,600.30
2023-01-11T08:32:16.245Z,598.15
2023-01-11T08:33:16.225Z,593.38
2023-01-11T08:34:16.211Z,584.57
2023-01-11T08:35:16.202Z,585.08
2023-01-11T08:36:16.232Z,592.85
2023-01-11T08:37:16.153Z,595.49
2023-01-11T08:38:16.147Z,598.68
2023-01-11T08:39:16.147Z,598.68
2023-01-11T08:40:16.123Z,605.73
2023-01-11T08:41:16.113Z,605.18
2023-01-11T08:42:16.072Z,609.04
2023-01-11T08:43:16.110Z,609.04
2023-01-11T08:44:22.237Z,611.82
2023-01-11T08:45:16.084Z,611.82
2023-01-11T08:46:16.112Z,611.82
2023-01-11T08:47:16.083Z,607.38
2023-01-11T08:48:16.007Z,609.59
2023-01-11T08:49:15.997Z,606.28
2023-01-11T08:50:15.985Z,604.63
2023-01-11T08:51:16.010Z,602.46
2023-01-11T08:52:16.017Z,597.08
2023-01-11T08:53:16.002Z,596.02
2023-01-11T08:54:15.977Z,594.43
2023-01-11T08:55:15.938Z,597.62
2023-01-11T08:56:15.925Z,597.62
2023-01-11T08:57:15.929Z,590.76
2023-01-11T08:58:15.951Z,592.33
2023-01-11T08:59:15.871Z,596.55
2023-01-11T09:00:15.905Z,587.13
2023-01-11T09:01:15.891Z,588.16
2023-01-11T09:02:15.869Z,586.62
2023-01-11T09:03:15.842Z,587.13
2023-01-11T09:04:24.860Z,580.51
2023-01-11T09:05:18.197Z,579.51
2023-01-11T09:06:15.770Z,582.03
2023-01-11T09:07:15.797Z,584.06
2023-01-11T09:08:15.796Z,574.04
2023-01-11T09:09:15.768Z,577.01
2023-01-11T09:10:15.824Z,570.61
2023-01-11T09:11:15.734Z,568.67
2023-01-11T09:12:15.705Z,563.88
2023-01-11T09:13:15.722Z,558.71
2023-01-11T09:14:15.684Z,557.31
2023-01-11T09:15:15.696Z,547.73
2023-01-11T09:16:15.690Z,554.54
2023-01-11T09:17:15.643Z,555.00
2023-01-11T09:18:15.614Z,550.89
2023-01-11T09:19:15.627Z,549.98
2023-01-11T09:20:15.629Z,551.34
2023-01-11T09:21:15.595Z,552.25
2023-01-11T09:22:15.649Z,560.58
2023-01-11T09:23:15.584Z,567.23
2023-01-11T09:24:15.568Z,572.08
2023-01-11T09:25:15.598Z,565.79
2023-01-11T09:26:15.541Z,572.08
2023-01-11T09:27:15.561Z,572.08
2023-01-11T09:28:15.511Z,572.57
2023-01-11T09:29:15.530Z,576.51
2023-01-11T09:30:15.500Z,575.52
2023-01-11T09:31:15.516Z,574.53
2023-01-11T09:32:15.446Z,571.10
2023-01-11T09:33:15.439Z,564.84
2023-01-11T09:34:15.410Z,560.58
2023-01-11T09:35:15.455Z,551.80
2023-01-11T09:36:15.399Z,541.09
2023-01-11T09:37:15.381Z,534.18
2023-01-11T09:38:15.393Z,517.26
2023-01-11T09:39:15.358Z,507.07
2023-01-11T09:40:15.363Z,495.80
2023-01-11T09:41:15.316Z,486.08
2023-01-11T09:42:15.376Z,476.05
2023-01-11T09:43:15.303Z,466.76
2023-01-11T09:44:15.287Z,451.64
2023-01-11T09:45:15.261Z,441.80
2023-01-11T09:46:15.320Z,430.16
2023-01-11T09:47:15.249Z,415.48
2023-01-11T09:48:15.235Z,405.16
2023-01-11T09:49:15.231Z,398.65
2023-01-11T09:50:15.242Z,395.35
2023-01-11T09:51:15.216Z,391.88
2023-01-11T09:52:15.221Z,399.12
2023-01-11T09:53:15.180Z,394.89
2023-01-11T09:54:15.160Z,393.03
2023-01-11T09:55:15.159Z,398.17
2023-01-11T09:56:15.115Z,398.65
2023-01-11T09:57:15.118Z,399.60
2023-01-11T09:58:15.087Z,407.63
2023-01-11T09:59:15.110Z,414.19
2023-01-11T10:00:15.108Z,423.63
2023-01-11T10:01:15.107Z,428.78
2023-01-11T10:02:16.011Z,436.33
2023-01-11T10:03:15.063Z,441.51
2023-01-11T10:04:15.000Z,450.12
2023-01-11T10:05:15.269Z,457.82
2023-01-11T10:06:15.047Z,471.69
2023-01-11T10:07:14.990Z,480.84
2023-01-11T10:18:23.632Z,494.70
2023-01-11T10:18:58.891Z,654.92
2023-01-11T10:19:35.032Z,751.12
2023-01-11T10:19:49.854Z,667.33
2023-01-11T10:20:49.766Z,624.38
2023-01-11T10:21:49.793Z,586.10
2023-01-11T10:22:49.763Z,562.46
2023-01-11T10:23:49.811Z,541.09
2023-01-11T10:24:49.742Z,513.68
2023-01-11T10:25:49.747Z,478.78
2023-01-11T10:26:49.803Z,449.82
2023-01-11T10:27:49.663Z,419.12
2023-01-11T10:28:49.661Z,391.88
2023-01-11T10:29:49.758Z,364.48
2023-01-11T10:30:49.689Z,334.83
2023-01-11T10:31:49.726Z,309.65
2023-01-11T10:32:49.634Z,287.99
2023-01-11T10:33:49.695Z,268.06
2023-01-11T10:34:49.609Z,252.64
2023-01-11T10:35:49.594Z,236.50
2023-01-11T10:36:49.531Z,223.50
2023-01-11T10:37:49.555Z,209.69
2023-01-11T10:38:49.522Z,199.17
2023-01-11T10:39:49.595Z,188.89
2023-01-11T10:40:49.529Z,182.86
2023-01-11T10:41:49.526Z,172.86
2023-01-11T10:42:49.478Z,165.68
2023-01-11T10:43:49.467Z,157.72
2023-01-11T10:44:49.442Z,150.76
2023-01-11T10:45:49.486Z,145.78
2023-01-11T10:46:49.411Z,140.28
2023-01-11T10:47:49.436Z,135.19
2023-01-11T10:48:49.394Z,130.96
2023-01-11T10:49:49.382Z,125.28
2023-01-11T10:50:49.380Z,122.17
2023-01-11T10:51:49.444Z,118.71
2023-01-11T10:52:49.339Z,115.44
2023-01-11T10:53:49.340Z,111.59
2023-01-11T10:54:50.242Z,108.91
2023-01-11T10:55:49.295Z,106.42
2023-01-11T10:57:03.183Z,104.30
2023-01-11T10:58:01.275Z,102.07
2023-01-11T10:58:49.283Z,99.41
2023-01-11T10:59:49.285Z,98.12
2023-01-11T11:00:49.301Z,95.50
2023-01-11T11:01:49.322Z,94.42
2023-01-11T11:02:49.219Z,93.86
2023-01-11T11:03:49.197Z,93.03
2023-01-11T11:04:49.189Z,90.51
2023-01-11T11:05:49.178Z,89.35
2023-01-11T11:06:49.156Z,87.76
2023-01-11T11:07:49.137Z,85.96
2023-01-11T11:08:49.152Z,84.74
2023-01-11T11:09:49.128Z,82.98
2023-01-11T11:10:49.142Z,81.76
2023-01-11T11:11:49.102Z,80.28
2023-01-11T11:12:49.103Z,79.06
2023-01-11T11:13:49.090Z,77.74
2023-01-11T11:14:49.099Z,76.67
2023-01-11T11:15:49.105Z,74.96
2023-01-11T11:16:49.051Z,74.29
2023-01-11T11:17:49.035Z,73.38
2023-01-11T11:18:49.028Z,73.06
2023-01-11T11:19:49.009Z,72.24
2023-01-11T11:20:48.972Z,71.62
2023-01-11T11:21:48.986Z,71.32
2023-01-11T11:22:48.952Z,70.66
2023-01-11T11:23:48.982Z,70.48
2023-01-11T11:24:48.966Z,69.95
2023-01-11T11:25:48.953Z,69.54
2023-01-11T11:26:48.966Z,69.03
2023-01-11T11:27:48.916Z,68.80
2023-01-11T11:28:48.876Z,68.63
2023-01-11T11:29:48.867Z,67.85
2023-01-11T11:30:48.869Z,67.36
2023-01-11T11:31:48.929Z,67.09
2023-01-11T11:32:48.801Z,66.51
2023-01-11T11:33:48.809Z,65.78
2023-01-11T11:34:48.796Z,65.67
2023-01-11T11:35:48.776Z,65.06
2023-01-11T11:36:48.786Z,64.11
2023-01-11T11:37:48.768Z,63.87
2023-01-11T11:38:48.759Z,63.29
2023-01-11T11:39:48.734Z,63.10
2023-01-11T11:40:48.753Z,62.77
2023-01-11T11:41:48.727Z,61.79
2023-01-11T11:42:48.724Z,61.79
2023-01-11T11:43:48.676Z,61.30
2023-01-11T11:44:48.674Z,60.72
2023-01-11T11:45:48.744Z,60.59
2023-01-11T11:46:48.659Z,60.02
2023-01-11T11:47:48.829Z,59.81
2023-01-11T11:48:48.666Z,59.30
2023-01-11T11:49:48.639Z,58.88
2023-01-11T11:50:48.673Z,58.47
2023-01-11T11:51:48.605Z,57.95
2023-01-11T11:52:48.571Z,57.43
2023-01-11T11:53:48.525Z,57.16
2023-01-11T11:54:48.571Z,56.65
2023-01-11T11:55:48.527Z,56.08
2023-01-11T11:56:48.488Z,55.90
2023-01-11T11:57:48.498Z,55.42
2023-01-11T11:58:48.491Z,54.87
2023-01-11T11:59:48.496Z,54.48
2023-01-11T12:00:48.455Z,54.27
2023-01-11T12:01:48.565Z,54.06
2023-01-11T12:02:48.427Z,53.85
2023-01-11T12:03:48.399Z,53.40
2023-01-11T12:04:48.477Z,53.30
2023-01-11T12:05:48.423Z,52.96
2023-01-11T12:06:49.381Z,52.80
2023-01-11T12:07:54.636Z,52.24
2023-01-11T12:08:48.342Z,52.01
2023-01-11T12:09:48.345Z,51.88
2023-01-11T12:10:48.335Z,51.91
2023-01-11T12:11:48.341Z,51.40
2023-01-11T12:12:48.322Z,51.03
2023-01-11T12:13:48.270Z,50.90
2023-01-11T12:14:48.270Z,50.63
2023-01-11T12:15:48.244Z,50.87
2023-01-11T12:16:48.321Z,50.29
2023-01-11T12:17:48.260Z,50.38
2023-01-11T12:18:48.225Z,50.05
2023-01-11T12:19:48.240Z,50.05
2023-01-11T12:20:48.171Z,50.26
2023-01-11T12:21:48.206Z,49.93
2023-01-11T12:22:48.147Z,49.90
2023-01-11T12:23:48.139Z,49.75
2023-01-11T12:24:48.136Z,49.75
2023-01-11T12:25:48.128Z,49.72
2023-01-11T12:26:48.274Z,49.87
2023-01-11T12:27:48.121Z,49.52
2023-01-11T12:28:48.105Z,49.61
2023-01-11T12:29:48.091Z,49.46
2023-01-11T12:30:48.090Z,49.43
2023-01-11T12:31:48.066Z,49.46
2023-01-11T12:32:48.051Z,49.40
2023-01-11T12:33:48.054Z,49.43
2023-01-11T12:34:48.002Z,49.20